createdAt,value
2017-01-28T00:01:14.518Z,92.74
2017-01-28T00:03:26.708Z,92.52
2017-01-28T00:05:34.006Z,92.52
2017-01-28T00:07:46.291Z,92.41
2017-01-28T00:09:58.655Z,92.52
2017-01-28T00:12:05.879Z,92.52
2017-01-28T00:14:18.141Z,92.46
2017-01-28T00:16:30.334Z,92.67
2017-01-28T00:18:37.643Z,92.63
2017-01-28T00:20:49.827Z,92.56
2017-01-28T00:23:02.552Z,92.67
2017-01-28T00:25:16.684Z,92.67
2017-01-28T00:27:29.019Z,92.95
2017-01-28T00:29:36.260Z,92.84
2017-01-28T00:31:49.622Z,92.84
2017-01-28T00:34:01.931Z,92.84
2017-01-28T00:36:15.407Z,92.74
2017-01-28T00:38:27.768Z,92.67
2017-01-28T00:40:39.947Z,92.46
2017-01-28T00:42:52.160Z,92.28
2017-01-28T00:45:04.258Z,92.28
2017-01-28T00:47:11.520Z,92.28
2017-01-28T00:49:23.692Z,92.21
2017-01-28T00:51:36.007Z,92.21
2017-01-28T00:53:48.249Z,92.21
2017-01-28T00:56:00.570Z,92.21
2017-01-28T00:58:13.074Z,92.21
2017-01-28T01:00:25.448Z,92.11
2017-01-28T01:02:37.869Z,92.21
2017-01-28T01:04:56.166Z,92.25
2017-01-28T01:07:12.256Z,92.25
2017-01-28T01:09:24.589Z,92.14
2017-01-28T01:11:49.284Z,92.14
2017-01-28T01:14:07.342Z,92.14
2017-01-28T01:16:19.923Z,92.14
2017-01-28T01:18:41.636Z,92.04
2017-01-28T01:20:53.939Z,92.04
2017-01-28T01:23:11.754Z,91.93
2017-01-28T01:25:24.017Z,91.93
2017-01-28T01:27:31.277Z,91.86
2017-01-28T01:29:47.175Z,91.97
2017-01-28T01:31:59.843Z,91.97
2017-01-28T01:34:12.619Z,91.76
2017-01-28T01:36:25.933Z,91.76
2017-01-28T01:38:38.316Z,91.65
2017-01-28T01:40:50.497Z,91.65
2017-01-28T01:43:05.304Z,91.54
2017-01-28T01:45:18.194Z,91.44
2017-01-28T01:47:25.666Z,91.47
2017-01-28T01:49:37.901Z,91.47
2017-01-28T01:51:50.028Z,91.76
2017-01-28T01:54:02.444Z,91.58
2017-01-28T01:56:12.863Z,91.37
2017-01-28T01:58:25.222Z,91.58
2017-01-28T02:00:37.517Z,91.58
2017-01-28T02:02:49.814Z,91.37
2017-01-28T02:05:02.453Z,91.37
2017-01-28T02:07:09.998Z,91.37
2017-01-28T02:09:22.405Z,91.37
2017-01-28T02:11:34.817Z,91.47
2017-01-28T02:13:47.002Z,91.47
2017-01-28T02:15:59.573Z,91.52
2017-01-28T02:18:11.844Z,91.52
2017-01-28T02:20:24.139Z,91.47
2017-01-28T02:22:36.508Z,91.47
2017-01-28T02:24:48.851Z,91.52
2017-01-28T02:26:56.135Z,91.58
2017-01-28T02:29:03.594Z,91.47
2017-01-28T02:31:16.032Z,91.41
2017-01-28T02:33:28.201Z,91.41
2017-01-28T02:35:35.504Z,91.47
2017-01-28T02:37:42.880Z,91.41
2017-01-28T02:39:55.444Z,91.19
2017-01-28T02:42:08.602Z,91.08
2017-01-28T02:44:16.008Z,91.02
2017-01-28T02:46:28.461Z,90.91
2017-01-28T02:48:40.923Z,91.02
2017-01-28T02:50:53.127Z,91.02
2017-01-28T02:53:05.424Z,91.02
2017-01-28T02:55:17.592Z,90.91
2017-01-28T02:57:29.773Z,90.91
2017-01-28T02:59:42.048Z,91.02
2017-01-28T03:01:54.417Z,91.02
2017-01-28T03:04:01.839Z,91.13
2017-01-28T03:06:09.069Z,91.02
2017-01-28T03:08:21.254Z,91.02
2017-01-28T03:10:33.659Z,91.06
2017-01-28T03:12:45.884Z,90.91
2017-01-28T03:14:58.323Z,91.02
2017-01-28T03:17:11.104Z,91.06
2017-01-28T03:19:23.502Z,90.95
2017-01-28T03:21:35.853Z,90.95
2017-01-28T03:23:48.167Z,90.84
2017-01-28T03:26:00.387Z,90.84
2017-01-28T03:28:07.724Z,90.84
2017-01-28T03:30:14.992Z,90.84
2017-01-28T03:32:27.380Z,90.84
2017-01-28T03:34:39.582Z,90.84
2017-01-28T03:36:52.013Z,90.95
2017-01-28T03:39:04.266Z,90.84
2017-01-28T03:41:16.480Z,90.84
2017-01-28T03:43:28.783Z,90.73
2017-01-28T03:45:41.089Z,90.62
2017-01-28T03:47:53.485Z,90.73
2017-01-28T03:50:06.103Z,90.84
2017-01-28T03:52:18.486Z,90.84
2017-01-28T03:54:31.375Z,90.95
2017-01-28T03:56:43.514Z,90.95
2017-01-28T03:58:55.758Z,90.84
2017-01-28T04:01:08.003Z,90.84
2017-01-28T04:03:21.083Z,91.24
2017-01-28T04:05:28.409Z,91.02
2017-01-28T04:07:40.790Z,90.95
2017-01-28T04:09:48.298Z,90.91
2017-01-28T04:12:00.548Z,90.84
2017-01-28T04:14:12.732Z,90.95
2017-01-28T04:16:24.940Z,91.06
2017-01-28T04:18:37.146Z,91.06
2017-01-28T04:20:49.436Z,91.06
2017-01-28T04:23:01.736Z,91.24
2017-01-28T04:25:14.035Z,91.34
2017-01-28T04:27:26.490Z,91.24
2017-01-28T04:29:39.408Z,91.13
2017-01-28T04:31:46.721Z,91.13
2017-01-28T04:33:58.926Z,91.13
2017-01-28T04:36:06.310Z,91.13
2017-01-28T04:38:18.588Z,91.13
2017-01-28T04:40:31.009Z,91.13
2017-01-28T04:42:43.315Z,91.13
2017-01-28T04:44:50.543Z,91.13
2017-01-28T04:47:02.802Z,91.02
2017-01-28T04:49:15.059Z,90.84
2017-01-28T04:51:27.411Z,90.84
2017-01-28T04:53:39.941Z,90.73
2017-01-28T04:55:52.106Z,90.52
2017-01-28T04:58:04.216Z,90.45
2017-01-28T05:00:16.382Z,90.45
2017-01-28T05:02:28.807Z,90.34
2017-01-28T05:04:41.436Z,90.45
2017-01-28T05:06:53.758Z,90.49
2017-01-28T05:09:06.025Z,90.49
2017-01-28T05:11:18.232Z,90.6
2017-01-28T05:13:30.563Z,90.71
2017-01-28T05:15:42.821Z,90.71
2017-01-28T05:17:55.128Z,90.6
2017-01-28T05:20:07.436Z,90.6
2017-01-28T05:22:19.817Z,90.6
2017-01-28T05:24:32.041Z,90.71
2017-01-28T05:26:44.291Z,90.71
2017-01-28T05:28:56.485Z,90.81
2017-01-28T05:31:08.665Z,90.81
2017-01-28T05:33:21.020Z,90.81
2017-01-28T05:35:33.333Z,90.81
2017-01-28T05:37:45.835Z,90.81
2017-01-28T05:39:58.658Z,90.71
2017-01-28T05:42:10.869Z,90.81
2017-01-28T05:44:23.276Z,90.81
2017-01-28T05:46:35.574Z,90.92
2017-01-28T05:48:43.075Z,90.92
2017-01-28T05:50:55.547Z,90.81
2017-01-28T05:53:07.830Z,90.81
2017-01-28T05:55:20.085Z,90.88
2017-01-28T05:57:32.291Z,90.71
2017-01-28T05:59:44.689Z,90.71
2017-01-28T06:01:52.083Z,90.67
2017-01-28T06:04:04.207Z,90.6
2017-01-28T06:06:16.360Z,90.49
2017-01-28T06:08:28.677Z,90.17
2017-01-28T06:10:41.098Z,89.95
2017-01-28T06:12:48.710Z,89.89
2017-01-28T06:15:01.533Z,89.78
2017-01-28T06:17:13.751Z,89.78
2017-01-28T06:19:19.321Z,89.78
2017-01-28T06:21:32.095Z,89.78
2017-01-28T06:23:44.549Z,89.89
2017-01-28T06:25:56.881Z,89.89
2017-01-28T06:28:04.393Z,89.89
2017-01-28T06:30:16.748Z,89.99
2017-01-28T06:32:29.363Z,89.99
2017-01-28T06:34:41.719Z,89.89
2017-01-28T06:36:53.953Z,89.89
2017-01-28T06:39:06.342Z,89.78
2017-01-28T06:41:18.624Z,89.78
2017-01-28T06:43:30.778Z,89.78
2017-01-28T06:45:43.008Z,89.78
2017-01-28T06:47:55.459Z,89.78
2017-01-28T06:50:08.437Z,89.67
2017-01-28T06:52:20.899Z,89.78
2017-01-28T06:54:33.261Z,89.78
2017-01-28T06:56:45.459Z,89.78
2017-01-28T06:58:57.878Z,89.78
2017-01-28T07:01:05.100Z,89.95
2017-01-28T07:03:17.441Z,89.74
2017-01-28T07:05:29.626Z,89.74
2017-01-28T07:07:41.809Z,89.74
2017-01-28T07:09:44.018Z,89.7
2017-01-28T07:11:56.406Z,89.59
2017-01-28T07:14:08.727Z,89.7
2017-01-28T07:16:21.126Z,89.59
2017-01-28T07:18:33.310Z,89.7
2017-01-28T07:20:45.470Z,89.66
2017-01-28T07:22:52.874Z,89.55
2017-01-28T07:25:00.714Z,89.55
2017-01-28T07:29:23.785Z,89.73
2017-01-28T07:31:36.176Z,89.73
2017-01-28T07:33:48.574Z,89.58
2017-01-28T07:35:55.835Z,89.58
2017-01-28T07:38:08.139Z,89.47
2017-01-28T07:40:20.455Z,89.47
2017-01-28T07:42:32.633Z,89.65
2017-01-28T07:44:39.874Z,89.82
2017-01-28T07:46:52.075Z,89.82
2017-01-28T07:49:04.267Z,89.72
2017-01-28T07:51:11.609Z,89.78
2017-01-28T07:53:23.954Z,89.78
2017-01-28T07:55:36.248Z,89.89
2017-01-28T07:57:48.501Z,89.74
2017-01-28T08:00:00.887Z,89.74
2017-01-28T08:02:13.223Z,89.64
2017-01-28T08:04:20.524Z,89.74
2017-01-28T08:06:32.909Z,89.7
2017-01-28T08:08:45.345Z,89.92
2017-01-28T08:10:52.874Z,90.09
2017-01-28T08:13:05.212Z,90.05
2017-01-28T08:15:17.684Z,90.05
2017-01-28T08:17:25.100Z,90.16
2017-01-28T08:19:37.531Z,90.01
2017-01-28T08:21:50.081Z,90.12
2017-01-28T08:24:02.473Z,90.12
2017-01-28T08:26:14.859Z,90.19
2017-01-28T08:28:27.106Z,90.19
2017-01-28T08:30:39.363Z,90.25
2017-01-28T08:32:46.693Z,90.22
2017-01-28T08:34:59.444Z,90.32
2017-01-28T08:37:11.787Z,90.39
2017-01-28T08:39:24.219Z,90.56
2017-01-28T08:41:31.444Z,90.56
2017-01-28T08:43:43.836Z,90.52
2017-01-28T08:45:51.515Z,90.62
2017-01-28T08:47:58.673Z,90.69
2017-01-28T08:50:11.880Z,90.55
2017-01-28T08:52:24.112Z,90.55
2017-01-28T08:54:31.392Z,90.51
2017-01-28T08:56:38.994Z,90.51
2017-01-28T08:58:46.417Z,90.47
2017-01-28T09:00:53.923Z,90.53
2017-01-28T09:03:06.158Z,90.53
2017-01-28T09:05:18.624Z,90.49
2017-01-28T09:07:31.482Z,90.77
2017-01-28T09:09:39.497Z,90.88
2017-01-28T09:11:52.483Z,90.94
2017-01-28T09:14:04.679Z,91.12
2017-01-28T09:16:17.848Z,91.18
2017-01-28T09:18:30.487Z,91.03
2017-01-28T09:20:44.524Z,91.2
2017-01-28T09:22:57.664Z,91.38
2017-01-28T09:25:10.977Z,91.44
2017-01-28T09:27:25.822Z,91.34
2017-01-28T09:29:40.843Z,91.3
2017-01-28T09:31:53.016Z,91.25
2017-01-28T09:34:05.295Z,91.32
2017-01-28T09:36:17.543Z,90.8
2017-01-28T09:38:29.987Z,88.89
2017-01-28T09:40:42.252Z,86.25
2017-01-28T09:42:54.976Z,84.38
2017-01-28T09:45:07.750Z,83.64
2017-01-28T09:47:20.161Z,83.21
2017-01-28T09:49:32.495Z,83.03
2017-01-28T09:51:44.909Z,82.95
2017-01-28T09:53:52.252Z,83.01
2017-01-28T09:56:04.532Z,82.84
2017-01-28T09:58:16.998Z,82.87
2017-01-28T10:00:29.397Z,82.82
2017-01-28T10:02:41.679Z,82.79
2017-01-28T10:04:54.006Z,82.51
2017-01-28T10:07:04.777Z,82.51
2017-01-28T10:09:16.999Z,82.89
2017-01-28T10:11:29.314Z,82.7
2017-01-28T10:13:41.489Z,82.35
2017-01-28T10:15:54.097Z,82.07
2017-01-28T10:18:06.497Z,81.62
2017-01-28T10:20:19.288Z,81.37
2017-01-28T10:22:31.861Z,81.23
2017-01-28T10:24:39.160Z,81.13
2017-01-28T10:26:51.875Z,81.54
2017-01-28T10:29:04.391Z,80.85
2017-01-28T10:31:16.775Z,80.85
2017-01-28T10:33:28.976Z,81.05
2017-01-28T10:35:41.306Z,80.26
2017-01-28T10:37:53.811Z,79.8
2017-01-28T10:40:06.325Z,79.49
2017-01-28T10:42:13.601Z,79.36
2017-01-28T10:44:26.854Z,79.15
2017-01-28T10:46:35.357Z,79.52
2017-01-28T10:48:49.486Z,79.32
2017-01-28T10:51:04.253Z,79.28
2017-01-28T10:53:14.056Z,79.08
2017-01-28T10:55:28.330Z,78.73
2017-01-28T10:57:40.740Z,78.94
2017-01-28T10:59:54.607Z,78.59
2017-01-28T11:02:08.651Z,79
2017-01-28T11:04:22.560Z,78.34
2017-01-28T11:06:36.677Z,78.45
2017-01-28T11:08:50.988Z,78.11
2017-01-28T11:11:05.783Z,77.28
2017-01-28T11:13:21.393Z,77.25
2017-01-28T11:15:36.611Z,76.9
2017-01-28T11:17:50.934Z,76.59
2017-01-28T11:20:06.396Z,76.59
2017-01-28T11:22:24.961Z,76.79
2017-01-28T11:24:37.311Z,76.79
2017-01-28T11:26:46.298Z,76.35
2017-01-28T11:28:59.853Z,76.35
2017-01-28T11:31:14.829Z,76.9
2017-01-28T11:33:28.710Z,76.35
2017-01-28T11:35:40.948Z,76.01
2017-01-28T11:37:53.200Z,75.7
2017-01-28T11:40:05.546Z,76.31
2017-01-28T11:42:17.685Z,76.66
2017-01-28T11:44:30.993Z,76.42
2017-01-28T11:46:44.828Z,76.18
2017-01-28T11:48:57.665Z,76.62
2017-01-28T11:51:10.557Z,76.59
2017-01-28T11:53:22.780Z,77.28
2017-01-28T11:55:35.375Z,80
2017-01-28T11:57:47.764Z,81.72
2017-01-28T11:59:55.181Z,81
2017-01-28T12:02:07.720Z,81.41
2017-01-28T12:04:20.253Z,81.96
2017-01-28T12:06:27.921Z,82.38
2017-01-28T12:08:40.230Z,82.45
2017-01-28T12:10:52.913Z,80.65
2017-01-28T12:13:05.170Z,78.54
2017-01-28T12:15:17.576Z,79.55
2017-01-28T12:17:30.073Z,81.51
2017-01-28T12:19:37.609Z,82.8
2017-01-28T12:21:44.866Z,84.6
2017-01-28T12:23:57.162Z,84.5
2017-01-28T12:26:09.391Z,84.45
2017-01-28T12:28:15.157Z,84.11
2017-01-28T12:30:27.558Z,84.39
2017-01-28T12:32:39.947Z,85.16
2017-01-28T12:34:52.235Z,86.79
2017-01-28T12:37:04.491Z,86.96
2017-01-28T12:39:16.897Z,86.33
2017-01-28T12:41:29.452Z,86.29
2017-01-28T12:43:41.854Z,84.69
2017-01-28T12:45:54.172Z,82.26
2017-01-28T12:48:06.452Z,81.16
2017-01-28T12:52:25.179Z,79.44
2017-01-28T12:54:37.394Z,80.72
2017-01-28T12:56:44.794Z,79.27
2017-01-28T12:58:57.151Z,79.51
2017-01-28T13:01:04.698Z,79.27
2017-01-28T13:03:17.116Z,79.37
2017-01-28T13:05:29.537Z,77.89
2017-01-28T13:07:41.789Z,78.65
2017-01-28T13:09:54.306Z,79.85
2017-01-28T13:12:06.823Z,79
2017-01-28T13:14:19.404Z,80.96
2017-01-28T13:16:31.937Z,81.45
2017-01-28T13:18:34.305Z,80.62
2017-01-28T13:20:46.566Z,77.42
2017-01-28T13:22:58.925Z,77.03
2017-01-28T13:25:11.202Z,79.07
2017-01-28T13:27:18.702Z,83.42
2017-01-28T13:29:26.051Z,83.78
2017-01-28T13:31:33.441Z,80.82
2017-01-28T13:33:45.674Z,81
2017-01-28T13:35:58.106Z,80.51
2017-01-28T13:38:10.408Z,77.31
2017-01-28T13:40:12.727Z,77
2017-01-28T13:42:25.121Z,78.55
2017-01-28T13:44:32.476Z,76.49
2017-01-28T13:46:44.992Z,77.76
2017-01-28T13:48:57.747Z,77.69
2017-01-28T13:51:05.276Z,75.12
2017-01-28T13:53:17.481Z,75.01
2017-01-28T13:55:24.740Z,73.1
2017-01-28T13:57:37.115Z,72.2
2017-01-28T13:59:49.433Z,71.32
2017-01-28T14:01:56.727Z,72.51
2017-01-28T14:04:09.212Z,74.49
2017-01-28T14:06:21.410Z,73.88
2017-01-28T14:08:33.833Z,75.49
2017-01-28T14:10:46.477Z,76.55
2017-01-28T14:12:58.882Z,74.43
2017-01-28T14:15:11.153Z,75.7
2017-01-28T14:17:23.458Z,74.74
2017-01-28T14:19:35.748Z,76.93
2017-01-28T14:21:48.057Z,72.61
2017-01-28T14:23:58.838Z,70.94
2017-01-28T14:26:11.114Z,71.93
2017-01-28T14:28:18.381Z,70.67
2017-01-28T14:30:30.597Z,72.48
2017-01-28T14:32:37.859Z,73.71
2017-01-28T14:34:50.377Z,73.88
2017-01-28T14:36:57.854Z,73.33
2017-01-28T14:39:10.376Z,78.72
2017-01-28T14:41:22.759Z,81.18
2017-01-28T14:45:40.590Z,85.66
2017-01-28T14:47:46.198Z,87.16
2017-01-28T14:49:53.753Z,87.68
2017-01-28T14:52:06.047Z,87.51
2017-01-28T14:54:18.447Z,86.88
2017-01-28T14:56:31.059Z,88.69
2017-01-28T14:58:43.397Z,88.94
2017-01-28T15:00:55.757Z,89.15
2017-01-28T15:03:08.246Z,88.87
2017-01-28T15:05:20.702Z,89.64
2017-01-28T15:07:32.987Z,90.41
2017-01-28T15:09:45.101Z,91.28
2017-01-28T15:11:57.336Z,91.89
2017-01-28T15:14:09.690Z,92.87
2017-01-28T15:16:22.084Z,93.12
2017-01-28T15:18:29.412Z,92.85
2017-01-28T15:20:41.619Z,93.84
2017-01-28T15:22:53.827Z,94.57
2017-01-28T15:25:06.255Z,95.03
2017-01-28T15:27:19.061Z,95.03
2017-01-28T15:29:29.923Z,95.23
2017-01-28T15:31:40.618Z,95.44
2017-01-28T15:33:53.107Z,95.59
2017-01-28T15:36:05.627Z,95.9
2017-01-28T15:38:17.829Z,95.95
2017-01-28T15:40:30.437Z,95.68
2017-01-28T15:42:42.809Z,96.04
2017-01-28T15:44:55.237Z,96.61
2017-01-28T15:47:07.425Z,96.65
2017-01-28T15:49:19.942Z,97
2017-01-28T15:51:32.396Z,97.26
2017-01-28T15:53:44.842Z,97.99
2017-01-28T15:55:52.104Z,98.35
2017-01-28T15:58:04.429Z,98.82
2017-01-28T16:00:16.618Z,98.92
2017-01-28T16:02:28.970Z,99.28
2017-01-28T16:04:41.521Z,99.38
2017-01-28T16:06:53.973Z,99.43
2017-01-28T16:09:06.230Z,99.74
2017-01-28T16:11:18.707Z,99.99
2017-01-28T16:13:26.144Z,99.99
2017-01-28T16:15:38.581Z,99.99
2017-01-28T16:17:51.362Z,99.99
2017-01-28T16:20:03.545Z,99.99
2017-01-28T16:22:10.756Z,99.99
2017-01-28T16:24:23.147Z,99.99
2017-01-28T16:26:35.551Z,99.99
2017-01-28T16:28:48.080Z,99.99
2017-01-28T16:31:00.486Z,99.99
2017-01-28T16:33:12.965Z,99.99
2017-01-28T16:35:25.358Z,99.99
2017-01-28T16:37:37.629Z,99.99
2017-01-28T16:39:49.853Z,99.99
2017-01-28T16:42:02.504Z,99.99
2017-01-28T16:44:14.659Z,99.99
2017-01-28T16:46:26.920Z,99.99
2017-01-28T16:48:39.277Z,99.99
2017-01-28T16:50:51.900Z,99.99
2017-01-28T16:53:04.126Z,99.99
2017-01-28T16:55:16.411Z,99.99
2017-01-28T16:57:28.715Z,99.99
2017-01-28T16:59:35.952Z,99.81
2017-01-28T17:01:43.366Z,99.81
2017-01-28T17:03:55.820Z,99.7
2017-01-28T17:06:08.007Z,99.6
2017-01-28T17:08:20.234Z,99.64
2017-01-28T17:10:32.430Z,99.43
2017-01-28T17:12:44.832Z,99.64
2017-01-28T17:14:57.463Z,99.75
2017-01-28T17:17:09.900Z,99.22
2017-01-28T17:19:22.199Z,99.43
2017-01-28T17:21:34.424Z,99.54
2017-01-28T17:23:46.921Z,99.64
2017-01-28T17:25:59.256Z,99.58
2017-01-28T17:28:11.700Z,99.9
2017-01-28T17:30:24.075Z,99.69
2017-01-28T17:32:36.332Z,99.79
2017-01-28T17:34:48.726Z,99.48
2017-01-28T17:37:01.089Z,99.05
2017-01-28T17:39:08.490Z,99.41
2017-01-28T17:41:20.987Z,99.63
2017-01-28T17:43:33.209Z,99.52
2017-01-28T17:45:40.462Z,99.52
2017-01-28T17:47:52.870Z,99.52
2017-01-28T17:50:05.071Z,99.41
2017-01-28T17:52:17.697Z,99.21
2017-01-28T17:54:31.296Z,99.31
2017-01-28T17:56:43.658Z,99.46
2017-01-28T17:58:55.950Z,99.35
2017-01-28T18:01:08.232Z,99.46
2017-01-28T18:03:20.552Z,99.25
2017-01-28T18:05:32.854Z,99.46
2017-01-28T18:07:45.110Z,99.78
2017-01-28T18:09:57.462Z,99.88
2017-01-28T18:12:09.804Z,99.35
2017-01-28T18:14:22.059Z,99.78
2017-01-28T18:16:34.468Z,99.51
2017-01-28T18:18:46.858Z,99.72
2017-01-28T18:20:59.083Z,99.51
2017-01-28T18:23:11.568Z,99.3
2017-01-28T18:25:24.382Z,99.51
2017-01-28T18:27:36.723Z,99.72
2017-01-28T18:29:49.404Z,99.99
2017-01-28T18:31:51.721Z,99.98
2017-01-28T18:34:04.193Z,99.76
2017-01-28T18:36:16.565Z,99.98
2017-01-28T18:38:28.780Z,99.99
2017-01-28T18:40:36.178Z,99.99
2017-01-28T18:42:48.606Z,99.99
2017-01-28T18:47:06.719Z,99.99
2017-01-28T18:49:18.874Z,99.99
2017-01-28T18:51:31.211Z,99.99
2017-01-28T18:53:43.398Z,99.99
2017-01-28T18:55:55.837Z,99.99
2017-01-28T18:58:08.098Z,99.54
2017-01-28T19:00:20.339Z,99.69
2017-01-28T19:02:32.923Z,99.99
2017-01-28T19:04:40.294Z,99.99
2017-01-28T19:06:52.699Z,99.99
2017-01-28T19:09:05.177Z,99.99
2017-01-28T19:11:17.713Z,99.99
2017-01-28T19:13:29.968Z,99.99
2017-01-28T19:15:42.216Z,99.99
2017-01-28T19:17:50.062Z,99.99
2017-01-28T19:20:02.353Z,99.99
2017-01-28T19:22:09.622Z,99.99
2017-01-28T19:24:21.871Z,99.99
2017-01-28T19:26:34.216Z,99.99
2017-01-28T19:28:46.421Z,99.99
2017-01-28T19:30:53.794Z,99.99
2017-01-28T19:33:06.232Z,99.99
2017-01-28T19:35:23.013Z,99.99
2017-01-28T19:37:35.431Z,99.99
2017-01-28T19:39:47.854Z,99.99
2017-01-28T19:42:01.725Z,99.99
2017-01-28T19:44:14.045Z,99.99
2017-01-28T19:46:26.471Z,99.99
2017-01-28T19:48:38.774Z,99.99
2017-01-28T19:50:51.324Z,99.99
2017-01-28T19:53:03.793Z,99.99
2017-01-28T19:55:16.065Z,99.99
2017-01-28T19:57:23.476Z,99.99
2017-01-28T19:59:35.737Z,99.99
2017-01-28T20:01:43.093Z,99.99
2017-01-28T20:03:55.688Z,99.99
2017-01-28T20:06:03.161Z,99.99
2017-01-28T20:08:15.532Z,99.99
2017-01-28T20:10:27.857Z,99.65
2017-01-28T20:12:35.105Z,99.54
2017-01-28T20:14:47.693Z,99.48
2017-01-28T20:16:59.965Z,99.32
2017-01-28T20:19:12.383Z,99.42
2017-01-28T20:21:24.795Z,99.36
2017-01-28T20:23:37.235Z,99.15
2017-01-28T20:25:49.421Z,98.93
2017-01-28T20:28:01.861Z,99.04
2017-01-28T20:30:09.313Z,98.87
2017-01-28T20:32:21.533Z,98.44
2017-01-28T20:34:29.019Z,98.44
2017-01-28T20:36:41.456Z,98.38
2017-01-28T20:40:59.665Z,98.49
2017-01-28T20:43:11.860Z,98.7
2017-01-28T20:45:24.176Z,98.32
2017-01-28T20:47:36.825Z,98.54
2017-01-28T20:49:44.403Z,98.85
2017-01-28T20:51:56.822Z,98.43
2017-01-28T20:53:59.037Z,98.43
2017-01-28T20:56:11.499Z,98.25
2017-01-28T20:58:23.769Z,97.94
2017-01-28T21:00:36.157Z,97.83
2017-01-28T21:02:48.500Z,97.88
2017-01-28T21:05:00.989Z,97.88
2017-01-28T21:07:13.455Z,97.66
2017-01-28T21:09:25.800Z,97.39
2017-01-28T21:11:38.096Z,97.49
2017-01-28T21:13:50.581Z,97.49
2017-01-28T21:15:57.877Z,98.36
2017-01-28T21:18:05.303Z,98.47
2017-01-28T21:20:17.870Z,97.45
2017-01-28T21:22:25.155Z,96.85
2017-01-28T21:24:37.694Z,96.75
2017-01-28T21:26:44.937Z,96.47
2017-01-28T21:28:57.293Z,96.04
2017-01-28T21:31:09.847Z,96.25
2017-01-28T21:33:22.234Z,95.83
2017-01-28T21:35:34.793Z,96.15
2017-01-28T21:37:47.566Z,95.62
2017-01-28T21:40:00.091Z,95.45
2017-01-28T21:42:12.606Z,95.55
2017-01-28T21:44:24.934Z,96.25
2017-01-28T21:46:32.386Z,95.62
2017-01-28T21:48:44.803Z,95.51
2017-01-28T21:50:57.341Z,95.62
2017-01-28T21:53:07.078Z,95.4
2017-01-28T21:55:21.484Z,95.02
2017-01-28T21:57:34.335Z,95.12
2017-01-28T21:59:41.929Z,95.34
2017-01-28T22:01:49.851Z,95.94
2017-01-28T22:04:02.502Z,96.25
2017-01-28T22:06:09.751Z,95.51
2017-01-28T22:08:22.020Z,94.91
2017-01-28T22:10:34.634Z,95.94
2017-01-28T22:12:46.886Z,96.21
2017-01-28T22:14:54.226Z,95.08
2017-01-28T22:17:06.619Z,94.59
2017-01-28T22:19:19.293Z,94.91
2017-01-28T22:21:31.610Z,94.64
2017-01-28T22:23:43.828Z,94.31
2017-01-28T22:25:56.285Z,94.14
2017-01-28T22:28:08.787Z,94.14
2017-01-28T22:30:21.276Z,94.35
2017-01-28T22:32:33.971Z,94.14
2017-01-28T22:34:46.614Z,94.14
2017-01-28T22:36:54.383Z,94.46
2017-01-28T22:39:06.810Z,94.03
2017-01-28T22:41:19.180Z,93.93
2017-01-28T22:43:26.395Z,93.86
2017-01-28T22:45:38.714Z,93.76
2017-01-28T22:47:50.928Z,93.59
2017-01-28T22:50:03.365Z,93.69
2017-01-28T22:52:15.708Z,93.59
2017-01-28T22:54:22.932Z,93.9
2017-01-28T22:56:30.478Z,93.69
2017-01-28T22:58:43.048Z,93.9
2017-01-28T23:00:55.531Z,93.8
2017-01-28T23:03:07.900Z,93.9
2017-01-28T23:05:20.341Z,94.23
2017-01-28T23:07:32.897Z,93.69
2017-01-28T23:09:45.463Z,93.48
2017-01-28T23:11:58.167Z,93.69
2017-01-28T23:14:10.377Z,93.41
2017-01-28T23:16:22.551Z,93.19
2017-01-28T23:18:34.748Z,93.3
2017-01-28T23:20:47.084Z,93.3
2017-01-28T23:22:59.474Z,93.3
2017-01-28T23:27:22.472Z,93.24
2017-01-28T23:29:34.735Z,92.91
2017-01-28T23:31:47.273Z,92.91
2017-01-28T23:33:54.529Z,93.02
2017-01-28T23:36:02.021Z,93.02
2017-01-28T23:38:14.362Z,92.81
2017-01-28T23:40:26.625Z,92.81
2017-01-28T23:42:39.371Z,93.35
2017-01-28T23:44:52.030Z,93.02
2017-01-28T23:47:04.314Z,93.24
2017-01-28T23:49:16.617Z,93.45
2017-01-28T23:51:28.840Z,93.24
2017-01-28T23:53:41.485Z,92.85
2017-01-28T23:55:53.728Z,92.64
2017-01-28T23:58:05.967Z,93.17
